Latest Weather Observations for Hamilton Island

IDQ60801

Issued at 6:35 pm EST Wednesday 4 March 2015 (issued every 30 minutes, with the page automatically refreshed every 10 minutes)

About weather observations | Map of weather stations | Latest weather observations for QLD | Other Formats
Station Details ID: 033106 Name: HAMILTON ISLAND AIRPORT Lat: -20.37 Lon: 148.95 Height: 58.66 m
Data from the previous 72 hours. | See also: Recent months at Hamilton Island
Date/Time
EST
Temp
°C
App
Temp
°C
Dew
Point
Rel
Hum
%
Delta-T
°C
Wind Press
QNH
hPa
Press
MSL
hPa
Rain
since 9 am
mm
Dir
 
Spd
km/h
Gust
km/h
Spd
kts
Gust
kts
04/06:30pm 26.8 26.8 23.7 83 2.1 SE 30 33 16 18 1010.6 - 2.4
04/06:00pm 27.5 27.9 23.7 80 2.6 SE 28 32 15 17 1010.4 1010.0 2.4
04/05:30pm 27.7 28.4 23.7 79 2.8 ESE 26 32 14 17 1010.4 - 2.4
04/05:00pm 27.7 27.6 22.9 75 3.3 ESE 28 33 15 18 1010.2 - 2.4
04/04:30pm 28.3 28.4 23.2 74 3.5 ESE 28 33 15 18 1010.3 - 2.4
04/04:00pm 27.7 27.0 23.5 78 2.9 SE 33 39 18 21 1010.3 - 2.4
04/03:50pm 27.9 27.1 23.1 75 3.3 SE 32 41 17 22 1010.2 - 2.4
04/03:30pm 28.0 27.5 23.6 77 3.0 ESE 32 35 17 19 1010.3 - 2.4
04/03:00pm 29.3 29.9 23.5 71 4.0 SE 26 32 14 17 1010.4 1010.0 2.4
04/02:30pm 29.0 28.8 23.4 72 3.9 SE 30 33 16 18 1010.5 - 2.4
04/02:00pm 29.0 28.6 23.0 70 4.1 SE 30 35 16 19 1010.8 - 2.4
04/01:30pm 28.7 28.2 22.9 71 4.0 ESE 30 35 16 19 1011.2 - 2.4
04/01:00pm 28.8 28.8 23.7 74 3.5 ESE 30 35 16 19 1011.5 - 2.4
04/12:30pm 28.4 27.9 23.5 75 3.4 ESE 32 35 17 19 1011.6 - 2.4
04/12:00pm 27.8 29.5 24.6 83 2.2 ESE 24 33 13 18 1011.8 1011.4 2.4
04/11:46am 26.4 28.9 24.4 89 1.4 SE 19 24 10 13 1012.0 - 2.4
04/11:30am 24.8 27.6 23.6 93 0.8 SSE 15 33 8 18 1012.4 - 2.4
04/11:22am 25.3 23.8 23.4 89 1.3 SE 37 46 20 25 1012.5 - 0.0
04/11:20am 25.4 23.5 23.5 89 1.3 SE 39 46 21 25 1012.5 - 0.0
04/11:02am 27.2 26.6 23.7 81 2.4 SE 33 39 18 21 1012.3 - 0.0
04/11:00am 27.0 25.5 22.8 78 2.9 SE 35 39 19 21 1012.3 - 0.0
04/10:56am 27.3 25.9 22.9 77 3.0 SE 35 41 19 22 1012.3 - 0.0
04/10:46am 28.1 27.6 23.5 76 3.2 SE 32 37 17 20 1012.4 - 0.0
04/10:39am 27.8 27.0 23.4 77 3.0 SE 33 39 18 21 1012.4 - 0.0
04/10:30am 27.3 26.0 23.1 78 2.9 SE 35 39 19 21 1012.5 - 0.0
04/10:26am 27.3 25.4 22.7 76 3.1 SE 37 43 20 23 1012.5 - 0.0
04/10:22am 27.3 25.4 22.7 76 3.1 SE 37 44 20 24 1012.5 - 0.0
04/10:00am 27.2 24.6 22.8 77 3.0 SE 41 46 22 25 1012.4 - 0.0
04/09:54am 27.0 24.6 22.6 77 3.0 SE 39 46 21 25 1012.3 - 0.0
04/09:30am 28.3 27.3 23.7 76 3.2 SE 35 43 19 23 1012.3 - 0.0
04/09:00am 28.2 26.8 23.6 76 3.2 SE 37 43 20 23 1012.1 1011.7 2.6
04/08:30am 27.6 26.0 23.2 77 3.0 SE 37 44 20 24 1011.9 - 2.6
04/08:00am 27.3 26.0 22.5 75 3.3 SE 33 41 18 22 1011.6 - 2.6
04/07:30am 27.3 25.5 22.3 74 3.4 SE 35 39 19 21 1011.4 - 2.6
04/07:00am 27.0 25.4 21.5 72 3.7 SE 32 35 17 19 1011.2 - 2.6
04/06:30am 26.5 24.0 20.8 71 3.8 SE 35 43 19 23 1010.8 - 2.6
04/06:00am 26.1 24.2 21.3 75 3.2 SE 33 41 18 22 1010.8 1010.4 2.6
04/05:30am 26.1 24.3 21.5 76 3.1 SE 33 41 18 22 1010.5 - 2.6
04/05:00am 26.0 24.3 21.7 77 2.9 SE 33 43 18 23 1010.3 - 2.6
04/04:30am 26.1 23.8 21.3 75 3.2 SE 35 41 19 22 1010.2 - 2.6
04/04:00am 26.4 23.5 21.6 75 3.2 SE 39 46 21 25 1010.1 - 2.6
04/03:30am 26.2 24.2 21.8 77 2.9 SE 35 43 19 23 1010.0 - 2.6
04/03:00am 26.3 24.3 21.9 77 2.9 SE 35 43 19 23 1010.3 1009.9 2.6
04/02:30am 26.3 24.2 22.4 79 2.6 SE 37 44 20 24 1010.5 - 2.6
04/02:00am 26.4 24.3 22.3 78 2.8 SE 37 44 20 24 1010.8 - 2.6
04/01:30am 26.3 24.3 21.9 77 2.9 SE 35 43 19 23 1011.2 - 2.6
04/01:00am 26.2 24.3 22.7 81 2.4 SE 37 44 20 24 1011.6 - 2.6
04/12:30am 26.3 24.7 22.6 80 2.5 ESE 35 44 19 24 1011.9 - 2.6
04/12:00am 26.3 24.5 22.2 78 2.8 ESE 35 39 19 21 1012.1 1011.7 2.6
 
Date/Time
EST
Temp
°C
App
Temp
°C
Dew
Point
Rel
Hum
%
Delta-T
°C
Wind Press
QNH
hPa
Press
MSL
hPa
Rain
since 9 am
mm
Dir
 
Spd
km/h
Gust
km/h
Spd
kts
Gust
kts
03/11:30pm 25.8 24.9 23.1 85 1.8 ESE 33 39 18 21 1012.3 - 2.4
03/11:00pm 26.8 25.4 22.2 76 3.1 SE 33 39 18 21 1012.6 - 0.0
03/10:30pm 27.0 23.4 21.7 73 3.5 ESE 43 52 23 28 1012.5 - 0.0
03/10:00pm 26.9 24.7 22.1 75 3.2 SE 37 43 20 23 1012.6 - 0.0
03/09:30pm 26.9 25.0 22.1 75 3.2 SE 35 39 19 21 1012.7 - 0.0
03/09:00pm 27.1 23.7 22.1 74 3.4 SE 43 50 23 27 1012.5 1012.1 0.0
03/08:30pm 26.9 24.0 22.3 76 3.1 SE 41 46 22 25 1012.2 - 0.0
03/08:00pm 27.0 24.7 22.0 74 3.4 SE 37 44 20 24 1011.9 - 0.0
03/07:30pm 27.0 25.3 21.7 73 3.5 SE 33 41 18 22 1011.4 - 0.0
03/07:00pm 27.0 24.1 21.5 72 3.7 SE 39 48 21 26 1011.1 - 0.0
03/06:30pm 27.1 25.0 21.6 72 3.7 SE 35 44 19 24 1010.8 - 0.0
03/06:00pm 27.3 24.6 21.3 69 4.0 SE 37 44 20 24 1010.6 1010.2 0.0
03/05:30pm 27.7 24.3 21.3 68 4.3 SE 41 46 22 25 1010.5 - 0.0
03/05:00pm 27.9 24.7 21.7 69 4.2 SE 41 46 22 25 1010.2 - 0.0
03/04:30pm 28.3 25.4 21.6 67 4.5 SE 39 44 21 24 1010.2 - 0.0
03/04:00pm 28.6 26.0 21.4 65 4.8 SE 37 43 20 23 1010.1 - 0.0
03/03:30pm 28.6 26.0 22.1 68 4.4 SE 39 46 21 25 1010.1 - 0.0
03/03:00pm 29.4 26.4 22.1 65 4.9 SE 41 50 22 27 1010.4 1010.0 0.0
03/02:30pm 29.4 27.3 22.4 66 4.8 SE 37 43 20 23 1010.4 - 0.0
03/02:00pm 29.3 26.8 22.3 66 4.8 SE 39 46 21 25 1010.6 - 0.0
03/01:30pm 29.5 26.4 21.2 61 5.6 SE 39 48 21 26 1011.0 - 0.0
03/01:00pm 29.4 27.2 22.1 65 4.9 SE 37 43 20 23 1011.3 - 0.0
03/12:30pm 29.5 27.7 22.2 65 5.0 SE 35 39 19 21 1011.8 - 0.0
03/12:00pm 28.7 26.7 21.2 64 5.0 SE 33 37 18 20 1012.3 1011.9 0.0
03/11:30am 29.8 28.3 22.0 63 5.3 SE 33 39 18 21 1012.6 - 0.0
03/11:00am 29.7 28.6 22.4 65 5.0 SE 32 39 17 21 1012.7 - 0.0
03/10:30am 29.4 27.6 21.6 63 5.2 SE 33 41 18 22 1012.9 - 0.0
03/10:00am 29.2 26.8 21.9 64 4.9 ESE 37 44 20 24 1012.9 - 0.0
03/09:30am 29.1 26.6 21.6 64 5.0 SE 37 44 20 24 1012.7 - 0.0
03/09:00am 28.8 25.9 21.6 65 4.8 SE 39 44 21 24 1012.6 1012.2 0.0
03/08:30am 28.2 24.1 20.7 63 5.0 ESE 43 50 23 27 1012.2 - 0.0
03/08:00am 28.0 24.3 20.8 65 4.8 SE 41 46 22 25 1012.0 - 0.0
03/07:30am 27.8 24.5 20.9 66 4.6 ESE 39 46 21 25 1011.7 - 0.0
03/07:00am 27.4 25.1 20.5 66 4.5 SE 33 39 18 21 1011.6 - 0.0
03/06:30am 26.8 23.5 20.9 70 3.9 SE 39 46 21 25 1011.3 - 0.0
03/06:00am 26.6 22.7 20.4 69 4.1 SE 41 48 22 26 1011.0 1010.6 0.0
03/05:30am 26.8 23.7 22.0 75 3.2 SE 41 52 22 28 1010.5 - 0.0
03/05:00am 26.8 24.9 22.0 75 3.2 SE 35 43 19 23 1010.4 - 0.0
03/04:30am 26.8 25.4 22.2 76 3.1 SE 33 39 18 21 1010.4 - 0.0
03/04:00am 27.0 24.4 21.5 72 3.7 ESE 37 44 20 24 1010.1 - 0.0
03/03:30am 26.9 25.7 22.3 76 3.1 ESE 32 39 17 21 1010.0 - 0.0
03/03:00am 26.8 24.8 21.8 74 3.4 SE 35 41 19 22 1010.0 1009.6 0.0
03/02:30am 26.8 25.9 22.2 76 3.1 ESE 30 35 16 19 1010.2 - 0.0
03/02:00am 26.9 26.4 22.1 75 3.2 ESE 28 35 15 19 1010.4 - 0.0
03/01:30am 27.0 25.6 22.0 74 3.4 ESE 32 35 17 19 1010.4 - 0.0
03/01:00am 27.1 25.5 21.8 73 3.6 ESE 33 41 18 22 1010.8 - 0.0
03/12:30am 27.1 25.2 22.1 74 3.4 ESE 35 41 19 22 1011.0 - 0.0
03/12:00am 27.2 25.8 23.0 78 2.9 ESE 35 41 19 22 1011.4 1011.0 0.0
 
Date/Time
EST
Temp
°C
App
Temp
°C
Dew
Point
Rel
Hum
%
Delta-T
°C
Wind Press
QNH
hPa
Press
MSL
hPa
Rain
since 9 am
mm
Dir
 
Spd
km/h
Gust
km/h
Spd
kts
Gust
kts
02/11:30pm 27.2 27.2 23.0 78 2.9 ESE 28 32 15 17 1011.5 - 0.0
02/11:00pm 27.3 26.2 22.9 77 3.0 ESE 33 43 18 23 1011.4 - 0.0
02/10:30pm 27.3 25.4 22.0 73 3.6 ESE 35 41 19 22 1011.4 - 0.0
02/10:00pm 27.2 25.9 22.4 75 3.2 ESE 33 39 18 21 1011.2 - 0.0
02/09:30pm 27.3 26.0 22.5 75 3.3 ESE 33 39 18 21 1011.2 - 0.0
02/09:00pm 27.4 26.0 22.3 73 3.4 ESE 33 39 18 21 1010.9 1010.5 0.0
02/08:30pm 27.4 25.9 22.8 76 3.1 ESE 35 43 19 23 1010.4 - 0.0
02/08:00pm 27.1 26.8 22.5 76 3.1 ESE 28 32 15 17 1010.3 - 0.0
02/07:30pm 27.2 27.1 22.2 74 3.4 ESE 26 32 14 17 1009.8 - 0.0
02/07:00pm 27.3 27.1 22.7 76 3.1 ESE 28 33 15 18 1009.6 - 0.0
02/06:30pm 27.2 26.4 22.4 75 3.2 ESE 30 35 16 19 1009.4 - 0.0
02/06:00pm 27.5 26.6 22.2 73 3.6 ESE 30 35 16 19 1009.1 1008.7 0.0
02/05:30pm 27.7 26.6 22.4 73 3.6 ESE 32 37 17 20 1009.0 - 0.0
02/05:00pm 27.9 26.6 22.1 70 3.9 ESE 32 35 17 19 1008.6 - 0.0
02/04:30pm 28.0 26.4 21.8 69 4.2 ESE 33 39 18 21 1008.4 - 0.0
02/04:00pm 28.3 27.8 22.1 69 4.2 ESE 28 33 15 18 1008.4 - 0.0
02/03:30pm 28.5 27.0 21.8 67 4.5 ESE 32 35 17 19 1008.4 - 0.0
02/03:00pm 28.4 27.6 21.7 67 4.5 E 28 32 15 17 1008.3 1007.9 0.0
02/02:30pm 29.0 28.9 22.2 66 4.6 ESE 26 30 14 16 1008.6 - 0.0
02/02:00pm 28.9 29.0 21.9 66 4.7 ESE 24 28 13 15 1008.9 - 0.0
02/01:30pm 29.0 28.9 22.2 66 4.6 ESE 26 30 14 16 1009.2 - 0.0
02/01:00pm 29.9 30.3 23.1 67 4.7 ESE 26 32 14 17 1009.6 - 0.0
02/12:30pm 29.0 30.2 23.2 71 4.0 SE 22 24 12 13 1010.0 - 0.0
02/12:00pm 28.8 29.9 22.3 68 4.4 SE 20 24 11 13 1010.2 1009.8 0.0
02/11:30am 29.0 29.8 22.5 68 4.4 SSE 22 24 12 13 1010.4 - 0.0
02/11:00am 28.8 30.4 22.1 67 4.5 SSE 17 22 9 12 1010.6 - 0.0
02/10:30am 29.5 32.0 23.2 69 4.3 SSE 15 19 8 10 1010.7 - 0.0
02/10:00am 29.3 31.6 22.8 68 4.4 SSE 15 17 8 9 1010.8 - 0.0
02/09:30am 29.1 31.7 22.6 68 4.4 SE 13 19 7 10 1010.7 - 0.0
02/09:00am 28.9 32.0 22.9 70 4.1 SSE 11 15 6 8 1010.8 1010.4 0.0
02/08:30am 29.0 32.7 23.2 71 4.0 SE 9 13 5 7 1010.5 - 0.0
02/08:00am 27.9 31.2 21.9 70 4.0 ESE 7 9 4 5 1010.3 - 0.0
02/07:30am 26.6 31.1 22.2 77 3.0 NNW 2 6 1 3 1010.0 - 0.0
02/07:00am 25.7 29.5 22.8 84 2.0 NW 7 7 4 4 1009.8 - 0.0
02/06:30am 25.4 29.6 23.1 87 1.6 NW 6 7 3 4 1009.5 - 0.0
02/06:00am 25.1 29.0 23.0 88 1.4 NW 7 7 4 4 1008.9 1008.5 0.0
02/05:30am 25.1 29.2 23.2 89 1.3 NNW 7 9 4 5 1008.8 - 0.0
02/05:00am 25.2 29.5 23.3 89 1.3 NW 6 7 3 4 1008.6 - 0.0
02/04:30am 25.1 29.0 23.0 88 1.4 NNW 7 9 4 5 1008.4 - 0.0
02/04:00am 25.4 30.6 22.9 86 1.7 CALM 0 0 0 0 1008.5 - 0.0
02/03:30am 25.6 30.7 22.7 84 2.0 CALM 0 4 0 2 1008.5 - 0.0
02/03:00am 25.8 29.5 22.5 82 2.2 N 7 11 4 6 1008.4 1008.0 0.0
02/02:30am 25.8 29.4 22.3 81 2.4 NE 7 11 4 6 1008.5 - 0.0
02/02:00am 25.7 28.4 22.2 81 2.4 NE 11 13 6 7 1008.7 - 0.0
02/01:30am 25.9 28.6 22.2 80 2.5 NE 11 13 6 7 1009.1 - 0.0
02/01:00am 25.9 28.4 21.8 78 2.7 NE 11 13 6 7 1009.6 - 0.0
02/12:30am 26.2 30.1 21.8 77 2.9 NNE 4 7 2 4 1010.1 - 0.0
02/12:00am 26.4 29.7 21.8 76 3.1 NNE 7 9 4 5 1010.2 1009.8 0.0
 
Date/Time
EST
Temp
°C
App
Temp
°C
Dew
Point
Rel
Hum
%
Delta-T
°C
Wind Press
QNH
hPa
Press
MSL
hPa
Rain
since 9 am
mm
Dir
 
Spd
km/h
Gust
km/h
Spd
kts
Gust
kts
01/11:30pm 26.3 29.2 21.7 76 3.1 NE 9 11 5 6 1010.3 - 0.0
01/11:00pm 26.4 28.9 21.8 76 3.1 ENE 11 13 6 7 1010.5 - 0.0
01/10:30pm 26.7 29.3 21.9 75 3.2 NE 11 15 6 8 1010.3 - 0.0
01/10:00pm 26.7 29.7 21.9 75 3.2 NE 9 15 5 8 1010.4 - 0.0
01/09:30pm 26.7 29.1 22.3 77 3.0 ENE 13 15 7 8 1010.0 - 0.0
01/09:00pm 26.9 29.7 22.3 76 3.1 ENE 11 15 6 8 1010.0 1009.6 0.0
01/08:30pm 26.9 29.2 22.1 75 3.2 ENE 13 15 7 8 1009.7 - 0.0
01/08:00pm 27.1 28.8 22.3 75 3.2 ENE 17 19 9 10 1009.2 - 0.0
01/07:30pm 27.2 28.6 21.9 73 3.6 ENE 17 20 9 11 1009.1 - 0.0
01/07:00pm 27.2 28.8 22.2 74 3.4 ENE 17 19 9 10 1008.6 - 0.0

Other Formats:

Comma delimited format used in spreadsheet applications
http://www.bom.gov.au/fwo/IDQ60801/IDQ60801.94368.axf

JavaScript Object Notation format (JSON) in row-major order
http://www.bom.gov.au/fwo/IDQ60801/IDQ60801.94368.json